createdAt,value
2017-11-06T00:02:04.890Z,7.17
2017-11-06T00:07:07.443Z,16.80
2017-11-06T00:12:09.992Z,8.33
2017-11-06T00:17:12.588Z,3.90
2017-11-06T00:22:15.136Z,5.60
2017-11-06T00:27:17.672Z,4.93
2017-11-06T00:32:20.245Z,7.33
2017-11-06T00:37:23.587Z,6.00
2017-11-06T00:42:26.144Z,3.93
2017-11-06T00:47:29.486Z,7.13
2017-11-06T00:52:32.801Z,5.93
2017-11-06T00:57:35.351Z,6.43
2017-11-06T01:02:37.896Z,4.60
2017-11-06T01:07:41.218Z,5.23
2017-11-06T01:12:43.804Z,8.03
2017-11-06T01:17:46.947Z,5.20
2017-11-06T01:22:49.788Z,6.17
2017-11-06T01:27:52.353Z,8.97
2017-11-06T01:32:54.903Z,7.90
2017-11-06T01:37:57.453Z,8.27
2017-11-06T01:42:59.998Z,5.33
2017-11-06T01:48:02.576Z,11.77
2017-11-06T01:53:05.140Z,8.13
2017-11-06T01:58:07.684Z,12.10
2017-11-06T02:03:10.242Z,9.23
2017-11-06T02:08:12.802Z,8.43
2017-11-06T02:13:15.365Z,10.53
2017-11-06T02:18:17.935Z,9.50
2017-11-06T02:23:21.294Z,9.43
2017-11-06T02:28:23.838Z,5.67
2017-11-06T02:33:26.388Z,9.10
2017-11-06T02:38:28.930Z,8.93
2017-11-06T02:43:31.488Z,8.10
2017-11-06T02:48:34.064Z,7.57
2017-11-06T02:53:36.654Z,10.07
2017-11-06T02:58:39.208Z,5.00
2017-11-06T03:03:41.771Z,26.57
2017-11-06T03:08:44.327Z,7.80
2017-11-06T03:13:46.886Z,11.30
2017-11-06T03:18:49.500Z,9.97
2017-11-06T03:23:52.062Z,12.20
2017-11-06T03:28:54.639Z,9.33
2017-11-06T03:33:57.952Z,9.73
2017-11-06T03:39:00.576Z,8.97
2017-11-06T03:44:03.121Z,8.20
2017-11-06T03:49:05.674Z,8.20
2017-11-06T03:54:08.990Z,9.10
2017-11-06T03:59:12.329Z,9.03
2017-11-06T04:04:14.860Z,7.63
2017-11-06T04:09:17.425Z,7.73
2017-11-06T04:14:19.993Z,7.13
2017-11-06T04:19:23.324Z,8.53
2017-11-06T04:24:26.636Z,11.80
2017-11-06T04:29:29.205Z,8.77
2017-11-06T04:34:31.787Z,6.53
2017-11-06T04:39:34.342Z,7.60
2017-11-06T04:44:36.899Z,18.13
2017-11-06T04:49:40.220Z,15.17
2017-11-06T04:54:43.669Z,14.33
2017-11-06T04:59:47.000Z,11.63
2017-11-06T05:04:49.598Z,15.30
2017-11-06T05:09:52.156Z,11.37
2017-11-06T05:14:54.713Z,12.83
2017-11-06T05:19:57.267Z,17.80
2017-11-06T05:24:59.815Z,15.23
2017-11-06T05:30:02.368Z,14.20
2017-11-06T05:35:04.922Z,18.80
2017-11-06T05:40:07.488Z,15.87
2017-11-06T05:45:10.852Z,18.00
2017-11-06T05:50:13.388Z,15.43
2017-11-06T05:55:15.961Z,19.10
2017-11-06T06:00:18.509Z,16.87
2017-11-06T06:05:21.896Z,16.47
2017-11-06T06:10:24.459Z,20.67
2017-11-06T06:15:27.011Z,19.33
2017-11-06T06:20:29.552Z,18.83
2017-11-06T06:25:32.103Z,21.97
2017-11-06T06:30:34.692Z,17.50
2017-11-06T06:35:37.242Z,21.53
2017-11-06T06:40:39.818Z,22.20
2017-11-06T06:45:43.140Z,20.93
2017-11-06T06:50:46.481Z,20.10
2017-11-06T06:55:49.043Z,19.03
2017-11-06T07:00:52.372Z,21.00
2017-11-06T07:05:54.939Z,31.43
2017-11-06T07:10:57.498Z,18.23
2017-11-06T07:16:00.059Z,25.43
2017-11-06T07:21:02.624Z,18.40
2017-11-06T07:26:05.173Z,21.87
2017-11-06T07:31:07.739Z,32.20
2017-11-06T07:36:10.284Z,21.23
2017-11-06T07:41:12.830Z,22.53
2017-11-06T07:46:15.404Z,16.50
2017-11-06T07:51:17.948Z,20.53
2017-11-06T07:56:20.492Z,17.80
2017-11-06T08:01:23.042Z,16.93
2017-11-06T08:06:25.636Z,19.90
2017-11-06T08:11:28.214Z,19.47
2017-11-06T08:16:30.777Z,17.77
2017-11-06T08:21:33.359Z,20.77
2017-11-06T08:26:36.727Z,21.87
2017-11-06T08:31:39.283Z,16.97
2017-11-06T08:36:41.834Z,15.50
2017-11-06T08:41:44.445Z,14.60
2017-11-06T08:46:47.003Z,19.33
2017-11-06T08:51:49.577Z,14.90
2017-11-06T08:56:52.128Z,12.77
2017-11-06T09:01:54.669Z,19.90
2017-11-06T09:06:57.239Z,14.30
2017-11-06T09:12:00.494Z,12.73
2017-11-06T09:17:03.046Z,16.80
2017-11-06T09:22:05.635Z,14.00
2017-11-06T09:27:08.179Z,18.53
2017-11-06T09:32:10.752Z,17.03
2017-11-06T09:37:13.303Z,18.87
2017-11-06T09:42:16.630Z,13.27
2017-11-06T09:47:19.183Z,13.70
2017-11-06T09:52:21.787Z,12.30
2017-11-06T09:57:24.344Z,21.20
2017-11-06T10:02:26.927Z,15.77
2017-11-06T10:07:30.244Z,14.60
2017-11-06T10:12:32.817Z,7.20
2017-11-06T10:17:36.191Z,16.60
2017-11-06T10:22:38.778Z,13.60
2017-11-06T10:27:41.332Z,15.33
2017-11-06T10:32:43.916Z,21.30
2017-11-06T10:37:46.591Z,15.40
2017-11-06T10:42:49.149Z,22.60
2017-11-06T10:47:52.468Z,8.03
2017-11-06T10:52:55.051Z,11.60
2017-11-06T10:57:57.624Z,10.30
2017-11-06T11:03:00.211Z,14.90
2017-11-06T11:08:02.797Z,10.67
2017-11-06T11:13:06.179Z,12.80
2017-11-06T11:18:08.768Z,14.10
2017-11-06T11:23:11.360Z,16.03
2017-11-06T11:28:13.915Z,10.80
2017-11-06T11:33:16.494Z,9.17
2017-11-06T11:38:19.825Z,12.00
2017-11-06T11:43:22.401Z,31.80
2017-11-06T11:48:24.928Z,8.27
2017-11-06T11:53:27.499Z,14.10
2017-11-06T11:58:30.068Z,12.43
2017-11-06T12:03:32.635Z,12.80
2017-11-06T12:08:35.193Z,8.40
2017-11-06T12:13:37.733Z,8.50
2017-11-06T12:18:40.307Z,10.23
2017-11-06T12:23:43.644Z,10.77
2017-11-06T12:28:46.255Z,13.80
2017-11-06T12:33:48.826Z,8.77
2017-11-06T12:38:51.387Z,11.23
2017-11-06T12:43:53.933Z,8.00
2017-11-06T12:48:56.487Z,7.67
2017-11-06T12:53:59.030Z,7.37
2017-11-06T12:59:03.635Z,8.80
2017-11-06T13:04:07.518Z,10.10
2017-11-06T13:24:32.999Z,10.63
2017-11-06T13:29:35.579Z,9.23
2017-11-06T13:34:38.274Z,13.43
2017-11-06T13:39:40.848Z,11.00
2017-11-06T13:44:44.195Z,15.30
2017-11-06T13:49:47.526Z,10.10
2017-11-06T13:54:50.076Z,6.40
2017-11-06T13:59:52.659Z,8.80
2017-11-06T14:04:55.274Z,10.47
2017-11-06T14:09:57.831Z,9.13
2017-11-06T14:15:00.383Z,8.87
2017-11-06T14:20:02.947Z,12.47
2017-11-06T14:25:05.514Z,10.13
2017-11-06T14:30:08.079Z,7.30
2017-11-06T14:35:10.665Z,8.43
2017-11-06T14:40:13.220Z,11.23
2017-11-06T14:45:15.828Z,10.63
2017-11-06T14:50:18.424Z,14.90
2017-11-06T14:55:21.002Z,15.93
2017-11-06T15:00:23.580Z,10.23
2017-11-06T15:05:26.129Z,12.07
2017-11-06T15:10:28.683Z,15.50
2017-11-06T15:15:32.032Z,12.57
2017-11-06T15:20:34.612Z,15.73
2017-11-06T15:25:37.162Z,16.43
2017-11-06T15:30:39.730Z,14.17
2017-11-06T15:35:42.657Z,16.83
2017-11-06T15:40:45.221Z,16.03
2017-11-06T15:45:47.792Z,17.57
2017-11-06T15:50:50.348Z,19.37
2017-11-06T15:55:52.939Z,13.33
2017-11-06T16:00:55.502Z,12.73
2017-11-06T16:05:58.063Z,15.03
2017-11-06T16:11:00.584Z,13.37
2017-11-06T16:16:03.153Z,11.53
2017-11-06T16:21:05.719Z,17.60
2017-11-06T16:26:08.302Z,19.63
2017-11-06T16:31:11.636Z,15.10
2017-11-06T16:36:14.185Z,12.80
2017-11-06T16:41:16.727Z,12.03
2017-11-06T16:46:19.280Z,13.97
2017-11-06T16:51:21.835Z,14.10
2017-11-06T16:56:24.421Z,14.17
2017-11-06T17:01:27.739Z,13.57
2017-11-06T17:06:30.300Z,23.67
2017-11-06T17:11:32.861Z,14.07
2017-11-06T17:16:35.432Z,42.10
2017-11-06T17:21:38.009Z,20.83
2017-11-06T17:26:40.586Z,19.80
2017-11-06T17:31:43.194Z,15.83
2017-11-06T17:36:45.853Z,14.70
2017-11-06T17:41:48.452Z,19.10
2017-11-06T17:46:51.014Z,15.10
2017-11-06T17:51:54.384Z,19.53
2017-11-06T17:56:56.970Z,21.63
2017-11-06T18:01:59.520Z,12.17
2017-11-06T18:07:02.114Z,17.73
2017-11-06T18:12:04.892Z,19.30
2017-11-06T18:17:07.565Z,16.93
2017-11-06T18:22:11.015Z,20.10
2017-11-06T18:27:13.615Z,18.33
2017-11-06T18:32:16.156Z,17.00
2017-11-06T18:37:18.715Z,17.40
2017-11-06T18:42:21.278Z,16.97
2017-11-06T18:47:24.630Z,13.43
2017-11-06T18:52:27.402Z,19.73
2017-11-06T18:57:30.017Z,19.30
2017-11-06T19:02:33.139Z,28.57
2017-11-06T19:07:35.704Z,18.60
2017-11-06T19:12:38.260Z,21.53
2017-11-06T19:17:40.849Z,16.33
2017-11-06T19:22:43.436Z,18.07
2017-11-06T19:27:46.009Z,19.33
2017-11-06T19:32:48.649Z,19.60
2017-11-06T19:37:51.226Z,19.13
2017-11-06T19:42:53.842Z,19.70
2017-11-06T19:47:56.511Z,22.77
2017-11-06T19:52:59.224Z,21.17
2017-11-06T19:58:02.641Z,21.37
2017-11-06T20:03:05.957Z,18.53
2017-11-06T20:08:08.564Z,17.40
2017-11-06T20:13:11.179Z,20.27
2017-11-06T20:18:13.739Z,19.90
2017-11-06T20:23:16.386Z,23.70
2017-11-06T20:28:19.037Z,20.27
2017-11-06T20:33:21.696Z,21.00
2017-11-06T20:38:24.325Z,26.23
2017-11-06T20:43:26.915Z,18.53
2017-11-06T20:48:29.519Z,22.23
2017-11-06T20:53:32.218Z,29.23
2017-11-06T20:58:35.055Z,22.03
2017-11-06T21:03:37.656Z,19.70
2017-11-06T21:08:40.505Z,19.00
2017-11-06T21:13:43.100Z,20.63
2017-11-06T21:18:45.723Z,22.93
2017-11-06T21:23:48.299Z,21.60
2017-11-06T21:28:51.690Z,20.63
2017-11-06T21:33:54.275Z,27.10
2017-11-06T21:38:56.921Z,25.67
2017-11-06T21:43:59.487Z,21.70
2017-11-06T21:49:02.055Z,21.60
2017-11-06T21:54:04.627Z,24.70
2017-11-06T21:59:07.190Z,32.73
2017-11-06T22:04:09.761Z,28.47
2017-11-06T22:09:12.324Z,46.30
2017-11-06T22:14:14.884Z,19.40
2017-11-06T22:19:17.454Z,20.40
2017-11-06T22:24:20.331Z,23.00
2017-11-06T22:29:22.911Z,20.00
2017-11-06T22:34:26.255Z,26.37
2017-11-06T22:39:28.806Z,20.37
2017-11-06T22:44:31.351Z,17.60
2017-11-06T22:49:33.936Z,15.73
2017-11-06T22:54:37.271Z,16.70
2017-11-06T22:59:40.093Z,16.07
2017-11-06T23:04:43.399Z,21.87
2017-11-06T23:09:45.968Z,19.47
2017-11-06T23:14:49.310Z,16.20
2017-11-06T23:19:51.930Z,20.90
2017-11-06T23:24:54.481Z,16.80
2017-11-06T23:29:57.015Z,15.63
2017-11-06T23:34:59.596Z,20.27
2017-11-06T23:40:02.155Z,16.53
2017-11-06T23:45:04.744Z,19.27
2017-11-06T23:50:07.322Z,14.33
2017-11-06T23:55:09.858Z,18.60
